Terminal Aerodrome Forecast
Issued by NWS Sterling, VA

Current Version | Previous Version | Text Only | Print | Product List | Glossary Off
Versions: 1 2 3 4 5 6 7 8 9 10 11 12 13

000
FTUS41 KLWX 201124
TAFMRB
TAF
KMRB 201124Z 2012/2112 32005KT P6SM FEW200
     FM201500 35009KT P6SM FEW150
     FM202100 03006KT P6SM FEW200
     FM211000 VRB03KT P6SM BKN110=

USA.gov is the U.S. government's official web portal to all federal, state and local government web resources and services.